createdAt,value
2022-09-09T00:00:26.454Z,28.37
2022-09-09T00:04:50.454Z,26.63
2022-09-09T00:09:15.479Z,28.50
2022-09-09T00:13:03.340Z,28.67
2022-09-09T00:17:00.495Z,28.43
2022-09-09T00:20:55.453Z,30.47
2022-09-09T00:24:58.478Z,29.55
2022-09-09T00:28:53.486Z,23.48
2022-09-09T00:32:47.511Z,24.48
2022-09-09T00:36:35.468Z,23.83
2022-09-09T00:40:39.457Z,23.83
2022-09-09T00:44:36.384Z,23.77
2022-09-09T00:48:28.536Z,22.67
2022-09-09T00:52:28.473Z,22.73
2022-09-09T00:56:34.471Z,26.47
2022-09-09T01:00:26.352Z,23.30
2022-09-09T01:04:26.495Z,20.58
2022-09-09T01:08:37.497Z,21.88
2022-09-09T01:12:37.484Z,21.10
2022-09-09T01:16:17.922Z,19.33
2022-09-09T01:20:33.512Z,18.17
2022-09-09T01:24:32.462Z,18.27
2022-09-09T01:28:37.482Z,16.73
2022-09-09T01:32:45.630Z,14.50
2022-09-09T01:36:52.536Z,16.97
2022-09-09T01:40:37.510Z,14.67
2022-09-09T01:44:29.549Z,16.17
2022-09-09T01:48:14.496Z,16.50
2022-09-09T01:52:01.547Z,18.10
2022-09-09T01:55:49.490Z,16.37
2022-09-09T02:00:23.503Z,18.00
2022-09-09T02:04:15.490Z,17.10
2022-09-09T02:08:16.580Z,15.55
2022-09-09T02:12:14.503Z,16.23
2022-09-09T02:16:22.669Z,14.83
2022-09-09T02:20:20.512Z,15.83
2022-09-09T02:24:17.495Z,15.45
2022-09-09T02:28:20.507Z,14.57
2022-09-09T02:32:16.533Z,17.40
2022-09-09T02:36:09.517Z,14.97
2022-09-09T02:40:02.606Z,15.50
2022-09-09T02:43:41.606Z,17.35
2022-09-09T02:47:49.521Z,16.63
2022-09-09T02:51:54.527Z,18.42
2022-09-09T02:55:54.509Z,16.97
2022-09-09T02:59:39.578Z,20.57
2022-09-09T03:03:26.522Z,23.65
2022-09-09T03:07:18.548Z,20.65
2022-09-09T03:11:06.559Z,22.63
2022-09-09T03:14:51.622Z,20.80
2022-09-09T03:18:36.710Z,20.10
2022-09-09T03:22:28.555Z,18.45
2022-09-09T03:26:13.526Z,21.25
2022-09-09T03:29:58.641Z,18.27
2022-09-09T03:33:48.560Z,17.83
2022-09-09T03:37:40.586Z,17.97
2022-09-09T03:41:25.596Z,19.73
2022-09-09T03:45:19.752Z,18.67
2022-09-09T03:48:58.173Z,18.35
2022-09-09T03:52:51.549Z,17.80
2022-09-09T03:56:36.565Z,15.60
2022-09-09T04:00:28.539Z,16.67
2022-09-09T04:04:06.815Z,17.58
2022-09-09T04:07:58.533Z,19.70
2022-09-09T04:11:44.642Z,21.47
2022-09-09T04:15:36.569Z,36.33
2022-09-09T04:19:15.284Z,31.08
2022-09-09T04:23:06.604Z,31.00
2022-09-09T04:26:58.577Z,26.17
2022-09-09T04:30:43.665Z,28.73
2022-09-09T04:34:42.752Z,32.27
2022-09-09T04:38:34.744Z,27.55
2022-09-09T04:42:19.693Z,27.08
2022-09-09T04:46:12.726Z,31.58
2022-09-09T04:49:53.207Z,29.87
2022-09-09T04:53:45.731Z,27.13
2022-09-09T04:57:30.717Z,28.52
2022-09-09T05:01:25.833Z,24.80
2022-09-09T05:05:04.845Z,25.83
2022-09-09T05:08:56.724Z,26.93
2022-09-09T05:12:41.748Z,29.97
2022-09-09T05:16:33.731Z,27.45
2022-09-09T05:20:17.210Z,28.08
2022-09-09T05:24:09.749Z,32.17
2022-09-09T05:27:54.839Z,34.27
2022-09-09T05:31:46.787Z,37.50
2022-09-09T05:35:25.893Z,34.42
2022-09-09T05:39:19.711Z,36.50
2022-09-09T05:43:04.646Z,42.15
2022-09-09T05:46:56.713Z,44.07
2022-09-09T05:50:42.600Z,38.37
2022-09-09T05:54:41.626Z,38.75
2022-09-09T05:58:33.645Z,44.40
2022-09-09T06:02:18.657Z,46.17
2022-09-09T06:06:13.677Z,44.27
2022-09-09T06:09:52.582Z,52.20
2022-09-09T06:13:46.633Z,42.72
2022-09-09T06:17:31.673Z,50.63
2022-09-09T06:21:37.669Z,40.85
2022-09-09T06:25:22.968Z,36.47
2022-09-09T06:29:09.647Z,23.77
2022-09-09T06:33:01.664Z,22.45
2022-09-09T06:36:46.620Z,20.70
2022-09-09T06:40:32.748Z,21.95
2022-09-09T06:44:19.680Z,20.57
2022-09-09T06:48:11.645Z,18.43
2022-09-09T06:51:57.650Z,20.90
2022-09-09T06:55:51.638Z,20.17
2022-09-09T06:59:31.819Z,20.17
2022-09-09T07:03:24.683Z,23.07
2022-09-09T07:07:09.683Z,20.10
2022-09-09T07:11:01.652Z,25.15
2022-09-09T07:14:40.435Z,25.58
2022-09-09T07:18:32.715Z,25.48
2022-09-09T07:22:18.689Z,29.33
2022-09-09T07:26:11.655Z,28.40
2022-09-09T07:29:49.953Z,28.38
2022-09-09T07:33:41.670Z,22.83
2022-09-09T07:37:26.703Z,22.58
2022-09-09T07:41:20.661Z,19.73
2022-09-09T07:44:58.939Z,17.80
2022-09-09T07:48:50.686Z,18.52
2022-09-09T07:52:35.690Z,18.52
2022-09-09T07:56:30.672Z,16.80
2022-09-09T08:00:11.244Z,20.63
2022-09-09T08:04:09.683Z,12.93
2022-09-09T08:07:54.665Z,18.27
2022-09-09T08:11:46.709Z,17.23
2022-09-09T08:15:24.929Z,14.50
2022-09-09T08:19:17.680Z,15.50
2022-09-09T08:23:03.681Z,16.30
2022-09-09T08:26:58.690Z,11.32
2022-09-09T08:30:36.998Z,9.43
2022-09-09T08:34:28.715Z,10.82
2022-09-09T08:38:13.714Z,9.47
2022-09-09T08:42:13.712Z,10.43
2022-09-09T08:46:19.069Z,8.65
2022-09-09T08:50:16.795Z,11.35
2022-09-09T08:54:04.732Z,8.65
2022-09-09T08:57:49.816Z,11.20
2022-09-09T09:01:53.779Z,6.70
2022-09-09T09:05:55.708Z,11.02
2022-09-09T09:09:45.867Z,11.60
2022-09-09T09:13:46.753Z,9.50
2022-09-09T09:17:28.586Z,9.53
2022-09-09T09:21:35.718Z,6.70
2022-09-09T09:25:38.721Z,8.27
2022-09-09T09:29:32.737Z,9.35
2022-09-09T09:33:49.720Z,10.20
2022-09-09T09:41:55.772Z,7.30
2022-09-09T09:46:16.288Z,5.68
2022-09-09T09:50:14.752Z,5.97
2022-09-09T09:54:28.749Z,4.55
2022-09-09T09:58:23.765Z,4.80
2022-09-09T10:02:08.764Z,6.07
2022-09-09T10:06:00.747Z,6.95
2022-09-09T10:09:38.836Z,5.57
2022-09-09T10:13:41.808Z,6.22
2022-09-09T10:17:44.758Z,7.60
2022-09-09T10:21:42.762Z,5.67
2022-09-09T10:25:51.759Z,4.70
2022-09-09T10:29:54.802Z,4.10
2022-09-09T10:34:11.794Z,4.68
2022-09-09T10:38:15.798Z,4.33
2022-09-09T10:42:10.990Z,5.90
2022-09-09T10:46:36.784Z,8.73
2022-09-09T10:51:00.431Z,5.25
2022-09-09T10:55:04.797Z,5.50
2022-09-09T10:59:05.793Z,4.33
2022-09-09T11:02:44.304Z,4.00
2022-09-09T11:06:42.838Z,4.55
2022-09-09T11:11:06.786Z,5.25
2022-09-09T11:15:20.812Z,5.57
2022-09-09T11:19:42.803Z,6.70
2022-09-09T11:23:42.003Z,7.13
2022-09-09T11:27:37.998Z,6.93
2022-09-09T11:31:41.815Z,4.22
2022-09-09T11:36:08.791Z,4.13
2022-09-09T11:40:01.937Z,3.73
2022-09-09T11:43:57.797Z,4.57
2022-09-09T11:47:44.839Z,4.70
2022-09-09T11:51:38.835Z,5.72
2022-09-09T11:55:38.840Z,3.13
2022-09-09T11:59:40.814Z,4.90
2022-09-09T12:03:56.918Z,5.33
2022-09-09T12:08:00.816Z,4.95
2022-09-09T12:11:38.926Z,7.55
2022-09-09T12:15:35.895Z,10.60
2022-09-09T12:19:34.848Z,7.13
2022-09-09T12:23:30.805Z,4.83
2022-09-09T12:27:29.828Z,4.70
2022-09-09T12:31:24.849Z,4.55
2022-09-09T12:35:24.924Z,5.85
2022-09-09T12:39:22.845Z,5.50
2022-09-09T12:43:10.068Z,5.37
2022-09-09T12:46:54.853Z,4.43
2022-09-09T12:50:52.866Z,3.72
2022-09-09T12:54:37.873Z,3.85
2022-09-09T12:58:26.076Z,3.87
2022-09-09T13:02:24.905Z,4.57
2022-09-09T13:06:31.849Z,4.43
2022-09-09T13:10:30.573Z,3.65
2022-09-09T13:14:46.848Z,3.47
2022-09-09T13:18:49.873Z,6.27
2022-09-09T13:22:47.854Z,8.00
2022-09-09T13:26:40.865Z,4.00
2022-09-09T13:30:35.905Z,4.40
2022-09-09T13:34:33.406Z,5.90
2022-09-09T13:38:27.760Z,4.00
2022-09-09T13:42:12.880Z,3.43
2022-09-09T13:46:11.915Z,2.63
2022-09-09T13:49:50.982Z,3.28
2022-09-09T13:53:42.888Z,4.88
2022-09-09T13:57:32.884Z,3.27
2022-09-09T14:01:29.328Z,4.87
2022-09-09T14:05:08.062Z,4.93
2022-09-09T14:08:59.921Z,5.47
2022-09-09T14:12:44.901Z,3.90
2022-09-09T14:16:36.915Z,3.77
2022-09-09T14:20:16.502Z,7.90
2022-09-09T14:24:07.903Z,4.35
2022-09-09T14:27:53.891Z,3.88
2022-09-09T14:31:45.922Z,6.63
2022-09-09T14:35:24.854Z,5.83
2022-09-09T14:39:16.903Z,4.73
2022-09-09T14:43:01.905Z,6.07
2022-09-09T14:47:08.910Z,5.65
2022-09-09T14:51:00.919Z,6.82
2022-09-09T14:54:39.989Z,4.37
2022-09-09T14:58:32.907Z,4.97
2022-09-09T15:02:17.988Z,4.28
2022-09-09T15:06:16.925Z,5.60
2022-09-09T15:09:55.263Z,6.22
2022-09-09T15:13:47.944Z,4.97
2022-09-09T15:17:39.940Z,4.97
2022-09-09T15:21:27.958Z,4.90
2022-09-09T15:25:13.530Z,6.60
2022-09-09T15:28:57.947Z,5.90
2022-09-09T15:32:49.948Z,10.13
2022-09-09T15:36:37.945Z,5.37
2022-09-09T15:40:23.092Z,6.82
2022-09-09T15:44:07.974Z,8.30
2022-09-09T15:48:01.945Z,5.05
2022-09-09T15:51:50.019Z,7.67
2022-09-09T15:55:36.234Z,5.50
2022-09-09T15:59:21.964Z,6.95
2022-09-09T16:03:14.202Z,5.65
2022-09-09T16:07:10.969Z,3.67
2022-09-09T16:10:49.430Z,6.20
2022-09-09T16:14:42.967Z,6.10
2022-09-09T16:18:28.056Z,5.18
2022-09-09T16:22:19.974Z,7.13
2022-09-09T16:26:05.856Z,9.38
2022-09-09T16:29:57.972Z,4.67
2022-09-09T16:33:42.976Z,7.00
2022-09-09T16:37:34.966Z,4.55
2022-09-09T16:41:14.025Z,8.18
2022-09-09T16:45:05.998Z,5.35
2022-09-09T16:48:52.980Z,8.23
2022-09-09T16:52:44.989Z,9.60
2022-09-09T16:56:28.769Z,9.50
2022-09-09T17:00:19.998Z,4.00
2022-09-09T17:04:09.000Z,6.20
2022-09-09T17:08:03.052Z,8.27
2022-09-09T17:11:42.403Z,5.67
2022-09-09T17:15:33.989Z,5.03
2022-09-09T17:19:20.064Z,7.72
2022-09-09T17:23:11.974Z,8.18
2022-09-09T17:26:50.059Z,5.80
2022-09-09T17:30:42.107Z,12.40
2022-09-09T17:34:27.015Z,7.50
2022-09-09T17:38:19.033Z,7.22
2022-09-09T17:41:57.137Z,9.43
2022-09-09T17:45:49.046Z,6.70
2022-09-09T17:49:33.996Z,8.57
2022-09-09T17:53:26.064Z,5.95
2022-09-09T17:57:04.202Z,7.78
2022-09-09T18:00:56.088Z,6.07
2022-09-09T18:04:41.033Z,10.37
2022-09-09T18:08:36.602Z,6.67
2022-09-09T18:12:15.147Z,8.40
2022-09-09T18:16:08.110Z,5.88
2022-09-09T18:19:53.088Z,4.82
2022-09-09T18:23:48.052Z,16.93
2022-09-09T18:27:26.113Z,7.17
2022-09-09T18:31:21.180Z,5.45
2022-09-09T18:35:06.028Z,8.52
2022-09-09T18:38:59.041Z,8.70
2022-09-09T18:42:37.119Z,5.77
2022-09-09T18:46:30.103Z,8.90
2022-09-09T18:50:15.042Z,6.72
2022-09-09T18:54:10.035Z,7.30
2022-09-09T18:58:02.049Z,7.35
2022-09-09T19:01:40.938Z,8.50
2022-09-09T19:05:34.108Z,6.87
2022-09-09T19:09:21.083Z,10.00
2022-09-09T19:13:13.025Z,7.15
2022-09-09T19:16:51.775Z,9.00
2022-09-09T19:20:43.066Z,7.63
2022-09-09T19:24:30.060Z,7.27
2022-09-09T19:28:22.085Z,9.55
2022-09-09T19:32:42.317Z,10.43
2022-09-09T19:36:16.061Z,9.65
2022-09-09T19:40:01.110Z,9.23
2022-09-09T19:43:54.084Z,19.73
2022-09-09T19:47:32.451Z,17.20
2022-09-09T19:51:27.070Z,9.95
2022-09-09T19:55:12.090Z,8.25
2022-09-09T19:59:05.109Z,12.73
2022-09-09T20:02:53.861Z,12.37
2022-09-09T20:06:51.131Z,10.15
2022-09-09T20:10:36.101Z,9.18
2022-09-09T20:14:22.149Z,9.15
2022-09-09T20:18:07.322Z,9.37
2022-09-09T20:21:56.107Z,7.93
2022-09-09T20:25:52.091Z,7.88
2022-09-09T20:29:37.077Z,7.80
2022-09-09T20:33:22.179Z,11.18
2022-09-09T20:37:09.099Z,9.47
2022-09-09T20:41:01.109Z,24.07
2022-09-09T20:44:46.114Z,15.85
2022-09-09T20:48:32.002Z,12.20
2022-09-09T20:52:18.135Z,10.40
2022-09-09T20:56:13.110Z,9.60
2022-09-09T20:59:58.118Z,9.80
2022-09-09T21:03:43.209Z,11.02
2022-09-09T21:07:28.122Z,8.07
2022-09-09T21:11:20.112Z,12.23
2022-09-09T21:15:05.116Z,12.07
2022-09-09T21:18:50.273Z,10.30
2022-09-09T21:22:36.159Z,10.75
2022-09-09T21:26:29.204Z,11.38
2022-09-09T21:30:14.140Z,15.82
2022-09-09T21:33:59.253Z,9.17
2022-09-09T21:37:44.148Z,12.53
2022-09-09T21:41:36.224Z,11.27
2022-09-09T21:45:21.130Z,11.82
2022-09-09T21:49:06.234Z,12.90
2022-09-09T21:52:51.146Z,10.23
2022-09-09T21:56:43.150Z,11.70
2022-09-09T22:00:28.129Z,13.05
2022-09-09T22:04:13.556Z,11.88
2022-09-09T22:08:00.155Z,12.57
2022-09-09T22:11:52.163Z,13.17
2022-09-09T22:15:39.193Z,13.03
2022-09-09T22:19:24.323Z,13.88
2022-09-09T22:23:09.159Z,12.93
2022-09-09T22:27:02.210Z,12.80
2022-09-09T22:30:47.171Z,11.50
2022-09-09T22:34:32.262Z,11.00
2022-09-09T22:38:18.228Z,10.90
2022-09-09T22:42:11.179Z,9.43
2022-09-09T22:45:57.178Z,9.02
2022-09-09T22:49:50.183Z,12.17
2022-09-09T22:53:28.434Z,11.67
2022-09-09T22:57:20.189Z,9.45
2022-09-09T23:01:06.171Z,9.00
2022-09-09T23:04:59.183Z,12.15
2022-09-09T23:08:38.325Z,11.17
2022-09-09T23:12:31.191Z,8.67
2022-09-09T23:16:18.250Z,11.65
2022-09-09T23:20:10.227Z,11.07
2022-09-09T23:23:52.718Z,10.15
2022-09-09T23:27:46.161Z,13.90
2022-09-09T23:31:32.223Z,10.80
2022-09-09T23:35:24.200Z,12.50
2022-09-09T23:39:05.382Z,13.45
2022-09-09T23:42:57.208Z,14.50
2022-09-09T23:46:42.233Z,11.90
2022-09-09T23:50:34.188Z,15.17
2022-09-09T23:54:12.626Z,11.60
2022-09-09T23:58:04.197Z,10.90
